sensor_id;sensor_type;location;lat;lon;timestamp;temperature;humidity
35305;DHT22;26433;48.034;-1.764;2023-05-14T05:03:57;14.00;99.90
35305;DHT22;26433;48.034;-1.764;2023-05-14T05:14:05;14.00;99.90
35305;DHT22;26433;48.034;-1.764;2023-05-14T05:19:10;14.00;99.90
35305;DHT22;26433;48.034;-1.764;2023-05-14T05:29:18;14.00;99.90
35305;DHT22;26433;48.034;-1.764;2023-05-14T05:34:23;14.00;99.90
35305;DHT22;26433;48.034;-1.764;2023-05-14T05:39:26;14.10;99.90
35305;DHT22;26433;48.034;-1.764;2023-05-14T05:44:35;14.10;99.90
35305;DHT22;26433;48.034;-1.764;2023-05-14T05:49:40;14.10;99.90
35305;DHT22;26433;48.034;-1.764;2023-05-14T06:04:53;14.40;99.90
35305;DHT22;26433;48.034;-1.764;2023-05-14T06:15:01;14.60;99.90
35305;DHT22;26433;48.034;-1.764;2023-05-14T06:20:07;14.60;99.90
35305;DHT22;26433;48.034;-1.764;2023-05-14T06:35:20;14.80;99.90
35305;DHT22;26433;48.034;-1.764;2023-05-14T06:45:28;14.90;99.90
35305;DHT22;26433;48.034;-1.764;2023-05-14T06:50:35;15.10;99.90
35305;DHT22;26433;48.034;-1.764;2023-05-14T07:05:48;15.30;99.90
35305;DHT22;26433;48.034;-1.764;2023-05-14T07:10:53;15.30;99.90
35305;DHT22;26433;48.034;-1.764;2023-05-14T07:21:03;15.50;99.90
35305;DHT22;26433;48.034;-1.764;2023-05-14T07:26:07;15.40;99.90
35305;DHT22;26433;48.034;-1.764;2023-05-14T07:36:16;15.70;99.90
35305;DHT22;26433;48.034;-1.764;2023-05-14T07:41:20;15.80;99.90
35305;DHT22;26433;48.034;-1.764;2023-05-14T07:46:24;16.00;99.60
35305;DHT22;26433;48.034;-1.764;2023-05-14T07:51:29;16.00;99.70
35305;DHT22;26433;48.034;-1.764;2023-05-14T07:56:34;16.10;99.40
35305;DHT22;26433;48.034;-1.764;2023-05-14T08:01:38;16.20;99.40
35305;DHT22;26433;48.034;-1.764;2023-05-14T08:06:43;16.30;99.30
35305;DHT22;26433;48.034;-1.764;2023-05-14T08:11:47;16.40;99.20
35305;DHT22;26433;48.034;-1.764;2023-05-14T08:16:50;16.40;99.20
35305;DHT22;26433;48.034;-1.764;2023-05-14T08:21:55;16.50;99.20
35305;DHT22;26433;48.034;-1.764;2023-05-14T08:26:59;16.50;99.00
35305;DHT22;26433;48.034;-1.764;2023-05-14T08:32:04;16.70;98.90
35305;DHT22;26433;48.034;-1.764;2023-05-14T08:37:25;16.70;98.80
35305;DHT22;26433;48.034;-1.764;2023-05-14T08:42:30;16.90;98.30
35305;DHT22;26433;48.034;-1.764;2023-05-14T08:47:34;17.00;98.10
35305;DHT22;26433;48.034;-1.764;2023-05-14T08:52:39;17.10;97.80
35305;DHT22;26433;48.034;-1.764;2023-05-14T08:57:43;17.30;97.70
35305;DHT22;26433;48.034;-1.764;2023-05-14T09:02:47;17.30;97.50
35305;DHT22;26433;48.034;-1.764;2023-05-14T09:07:53;17.40;97.30
35305;DHT22;26433;48.034;-1.764;2023-05-14T09:12:56;17.60;97.40
35305;DHT22;26433;48.034;-1.764;2023-05-14T09:18:00;18.00;96.60
35305;DHT22;26433;48.034;-1.764;2023-05-14T09:23:05;18.40;95.40
35305;DHT22;26433;48.034;-1.764;2023-05-14T09:28:08;18.80;94.30
35305;DHT22;26433;48.034;-1.764;2023-05-14T09:33:25;19.20;93.50
35305;DHT22;26433;48.034;-1.764;2023-05-14T09:38:31;20.00;92.20
35305;DHT22;26433;48.034;-1.764;2023-05-14T09:43:35;20.50;90.20
35305;DHT22;26433;48.034;-1.764;2023-05-14T09:48:38;21.00;89.00
35305;DHT22;26433;48.034;-1.764;2023-05-14T09:53:44;21.80;85.30
35305;DHT22;26433;48.034;-1.764;2023-05-14T09:58:47;22.60;81.80
35305;DHT22;26433;48.034;-1.764;2023-05-14T10:03:52;23.40;79.10
35305;DHT22;26433;48.034;-1.764;2023-05-14T10:09:00;24.20;75.90
35305;DHT22;26433;48.034;-1.764;2023-05-14T10:14:07;24.80;73.70
35305;DHT22;26433;48.034;-1.764;2023-05-14T10:19:11;25.00;72.90
35305;DHT22;26433;48.034;-1.764;2023-05-14T10:24:19;24.70;73.30
35305;DHT22;26433;48.034;-1.764;2023-05-14T10:29:31;24.50;73.90
35305;DHT22;26433;48.034;-1.764;2023-05-14T10:34:36;24.60;73.50
35305;DHT22;26433;48.034;-1.764;2023-05-14T10:39:45;25.10;72.10
35305;DHT22;26433;48.034;-1.764;2023-05-14T10:44:52;25.50;70.40
35305;DHT22;26433;48.034;-1.764;2023-05-14T10:49:57;25.50;70.10
35305;DHT22;26433;48.034;-1.764;2023-05-14T10:55:04;26.00;68.80
35305;DHT22;26433;48.034;-1.764;2023-05-14T11:00:10;26.30;67.40
35305;DHT22;26433;48.034;-1.764;2023-05-14T11:05:15;26.50;67.00
35305;DHT22;26433;48.034;-1.764;2023-05-14T11:10:20;26.80;66.00
35305;DHT22;26433;48.034;-1.764;2023-05-14T11:15:26;27.10;65.30
35305;DHT22;26433;48.034;-1.764;2023-05-14T11:20:30;27.50;64.30
35305;DHT22;26433;48.034;-1.764;2023-05-14T11:25:35;27.70;63.50
35305;DHT22;26433;48.034;-1.764;2023-05-14T11:30:39;27.90;62.90
35305;DHT22;26433;48.034;-1.764;2023-05-14T11:35:43;28.30;62.80
35305;DHT22;26433;48.034;-1.764;2023-05-14T11:40:52;28.40;61.90
35305;DHT22;26433;48.034;-1.764;2023-05-14T11:45:56;28.50;61.50
35305;DHT22;26433;48.034;-1.764;2023-05-14T11:51:00;28.60;61.30
35305;DHT22;26433;48.034;-1.764;2023-05-14T11:56:05;28.80;60.50
35305;DHT22;26433;48.034;-1.764;2023-05-14T12:01:12;29.20;59.80
35305;DHT22;26433;48.034;-1.764;2023-05-14T12:06:17;29.40;59.00
35305;DHT22;26433;48.034;-1.764;2023-05-14T12:11:22;29.10;59.40
35305;DHT22;26433;48.034;-1.764;2023-05-14T12:16:29;29.40;58.90
35305;DHT22;26433;48.034;-1.764;2023-05-14T12:21:33;29.50;58.60
35305;DHT22;26433;48.034;-1.764;2023-05-14T12:26:39;29.80;57.80
35305;DHT22;26433;48.034;-1.764;2023-05-14T12:31:46;29.40;58.10
35305;DHT22;26433;48.034;-1.764;2023-05-14T12:36:50;29.30;58.20
35305;DHT22;26433;48.034;-1.764;2023-05-14T12:41:55;29.50;57.40
35305;DHT22;26433;48.034;-1.764;2023-05-14T12:46:59;29.20;57.60
35305;DHT22;26433;48.034;-1.764;2023-05-14T12:52:03;28.90;58.20
35305;DHT22;26433;48.034;-1.764;2023-05-14T12:57:29;29.10;57.80
35305;DHT22;26433;48.034;-1.764;2023-05-14T13:02:33;29.20;57.60
35305;DHT22;26433;48.034;-1.764;2023-05-14T13:07:44;29.60;56.70
35305;DHT22;26433;48.034;-1.764;2023-05-14T13:12:49;29.90;55.90
35305;DHT22;26433;48.034;-1.764;2023-05-14T13:17:53;29.90;55.40
35305;DHT22;26433;48.034;-1.764;2023-05-14T13:22:57;29.20;56.20
35305;DHT22;26433;48.034;-1.764;2023-05-14T13:28:02;28.80;56.60
35305;DHT22;26433;48.034;-1.764;2023-05-14T13:33:06;28.90;56.40
35305;DHT22;26433;48.034;-1.764;2023-05-14T13:38:10;28.90;56.10
35305;DHT22;26433;48.034;-1.764;2023-05-14T13:43:15;28.90;56.20
35305;DHT22;26433;48.034;-1.764;2023-05-14T13:48:19;29.00;55.80
35305;DHT22;26433;48.034;-1.764;2023-05-14T13:53:23;29.10;55.40
35305;DHT22;26433;48.034;-1.764;2023-05-14T13:58:28;28.90;55.30
35305;DHT22;26433;48.034;-1.764;2023-05-14T14:03:32;28.50;55.80
35305;DHT22;26433;48.034;-1.764;2023-05-14T14:08:36;28.40;56.00
35305;DHT22;26433;48.034;-1.764;2023-05-14T14:13:41;28.30;56.20
35305;DHT22;26433;48.034;-1.764;2023-05-14T14:18:47;28.20;56.10
35305;DHT22;26433;48.034;-1.764;2023-05-14T14:23:51;28.00;56.20
35305;DHT22;26433;48.034;-1.764;2023-05-14T14:28:56;27.70;56.30
35305;DHT22;26433;48.034;-1.764;2023-05-14T14:34:00;27.60;56.50
35305;DHT22;26433;48.034;-1.764;2023-05-14T14:39:03;27.30;56.60
35305;DHT22;26433;48.034;-1.764;2023-05-14T14:44:08;27.00;57.00
35305;DHT22;26433;48.034;-1.764;2023-05-14T14:49:12;26.80;57.00
35305;DHT22;26433;48.034;-1.764;2023-05-14T14:54:15;26.60;57.10
35305;DHT22;26433;48.034;-1.764;2023-05-14T14:59:20;26.50;57.30
35305;DHT22;26433;48.034;-1.764;2023-05-14T15:04:24;26.20;57.50
35305;DHT22;26433;48.034;-1.764;2023-05-14T15:09:28;25.80;57.90
35305;DHT22;26433;48.034;-1.764;2023-05-14T15:14:33;25.50;58.50
35305;DHT22;26433;48.034;-1.764;2023-05-14T15:19:36;25.20;58.90
35305;DHT22;26433;48.034;-1.764;2023-05-14T15:24:40;25.00;59.20
35305;DHT22;26433;48.034;-1.764;2023-05-14T15:29:45;24.80;59.60
35305;DHT22;26433;48.034;-1.764;2023-05-14T15:34:49;24.60;59.90
35305;DHT22;26433;48.034;-1.764;2023-05-14T15:39:52;24.40;60.20
35305;DHT22;26433;48.034;-1.764;2023-05-14T15:44:57;24.30;60.50
35305;DHT22;26433;48.034;-1.764;2023-05-14T15:50:01;24.20;60.80
35305;DHT22;26433;48.034;-1.764;2023-05-14T15:55:06;24.10;61.10
35305;DHT22;26433;48.034;-1.764;2023-05-14T16:00:12;24.00;61.30
35305;DHT22;26433;48.034;-1.764;2023-05-14T16:05:16;23.70;61.60
35305;DHT22;26433;48.034;-1.764;2023-05-14T16:10:20;23.60;61.90
35305;DHT22;26433;48.034;-1.764;2023-05-14T16:15:25;23.40;61.80
35305;DHT22;26433;48.034;-1.764;2023-05-14T16:20:30;23.30;62.00
35305;DHT22;26433;48.034;-1.764;2023-05-14T16:25:34;23.20;62.10
35305;DHT22;26433;48.034;-1.764;2023-05-14T16:30:38;23.10;62.30
35305;DHT22;26433;48.034;-1.764;2023-05-14T16:35:42;22.90;62.50
35305;DHT22;26433;48.034;-1.764;2023-05-14T16:40:46;22.70;62.60
35305;DHT22;26433;48.034;-1.764;2023-05-14T16:45:51;22.50;62.80
35305;DHT22;26433;48.034;-1.764;2023-05-14T16:50:55;22.30;63.00
35305;DHT22;26433;48.034;-1.764;2023-05-14T16:56:00;22.10;63.20
35305;DHT22;26433;48.034;-1.764;2023-05-14T17:01:05;21.90;63.50
35305;DHT22;26433;48.034;-1.764;2023-05-14T17:06:11;21.70;63.60
35305;DHT22;26433;48.034;-1.764;2023-05-14T17:11:14;21.60;63.80
35305;DHT22;26433;48.034;-1.764;2023-05-14T17:16:20;21.50;64.10
35305;DHT22;26433;48.034;-1.764;2023-05-14T17:21:23;21.30;64.10
35305;DHT22;26433;48.034;-1.764;2023-05-14T17:26:27;21.30;64.30
35305;DHT22;26433;48.034;-1.764;2023-05-14T17:31:32;21.20;64.60
35305;DHT22;26433;48.034;-1.764;2023-05-14T17:36:36;21.20;64.80
35305;DHT22;26433;48.034;-1.764;2023-05-14T17:41:40;21.10;64.90
35305;DHT22;26433;48.034;-1.764;2023-05-14T17:46:45;21.00;65.10
35305;DHT22;26433;48.034;-1.764;2023-05-14T17:51:50;21.00;65.40
35305;DHT22;26433;48.034;-1.764;2023-05-14T17:56:54;21.00;65.50
35305;DHT22;26433;48.034;-1.764;2023-05-14T18:01:59;21.00;65.50
35305;DHT22;26433;48.034;-1.764;2023-05-14T18:07:03;20.90;65.40
35305;DHT22;26433;48.034;-1.764;2023-05-14T18:12:07;20.80;65.40
35305;DHT22;26433;48.034;-1.764;2023-05-14T18:17:12;20.80;65.40
35305;DHT22;26433;48.034;-1.764;2023-05-14T18:22:16;20.70;65.60
35305;DHT22;26433;48.034;-1.764;2023-05-14T18:27:21;20.60;66.50
35305;DHT22;26433;48.034;-1.764;2023-05-14T18:32:26;20.50;66.20
35305;DHT22;26433;48.034;-1.764;2023-05-14T18:37:30;20.40;66.50
35305;DHT22;26433;48.034;-1.764;2023-05-14T18:42:33;20.30;66.90
35305;DHT22;26433;48.034;-1.764;2023-05-14T18:47:39;20.20;67.90
35305;DHT22;26433;48.034;-1.764;2023-05-14T18:52:43;20.10;67.80
35305;DHT22;26433;48.034;-1.764;2023-05-14T18:57:46;20.00;68.30
35305;DHT22;26433;48.034;-1.764;2023-05-14T19:02:51;19.90;68.90
35305;DHT22;26433;48.034;-1.764;2023-05-14T19:07:55;19.80;69.70
35305;DHT22;26433;48.034;-1.764;2023-05-14T19:12:59;19.60;70.10
35305;DHT22;26433;48.034;-1.764;2023-05-14T19:18:04;19.40;70.40
35305;DHT22;26433;48.034;-1.764;2023-05-14T19:23:08;19.20;70.80
35305;DHT22;26433;48.034;-1.764;2023-05-14T19:28:12;19.00;71.10
35305;DHT22;26433;48.034;-1.764;2023-05-14T19:33:17;18.80;71.40
35305;DHT22;26433;48.034;-1.764;2023-05-14T19:38:20;18.70;71.80
35305;DHT22;26433;48.034;-1.764;2023-05-14T19:43:24;18.50;71.90
35305;DHT22;26433;48.034;-1.764;2023-05-14T19:48:30;18.40;72.30
35305;DHT22;26433;48.034;-1.764;2023-05-14T19:53:34;18.30;72.60
35305;DHT22;26433;48.034;-1.764;2023-05-14T19:58:38;18.20;72.90
35305;DHT22;26433;48.034;-1.764;2023-05-14T20:03:43;17.90;72.80
35305;DHT22;26433;48.034;-1.764;2023-05-14T20:08:47;17.90;73.50
35305;DHT22;26433;48.034;-1.764;2023-05-14T20:13:52;17.80;74.00
35305;DHT22;26433;48.034;-1.764;2023-05-14T20:18:57;17.70;74.50
35305;DHT22;26433;48.034;-1.764;2023-05-14T20:24:01;17.50;75.00
35305;DHT22;26433;48.034;-1.764;2023-05-14T20:29:04;17.40;75.50
35305;DHT22;26433;48.034;-1.764;2023-05-14T20:34:09;17.30;76.10
35305;DHT22;26433;48.034;-1.764;2023-05-14T20:39:13;17.20;76.50
35305;DHT22;26433;48.034;-1.764;2023-05-14T20:44:17;17.10;77.10
35305;DHT22;26433;48.034;-1.764;2023-05-14T20:49:23;17.00;77.60
35305;DHT22;26433;48.034;-1.764;2023-05-14T20:54:27;16.90;78.20
35305;DHT22;26433;48.034;-1.764;2023-05-14T20:59:30;16.70;78.90
35305;DHT22;26433;48.034;-1.764;2023-05-14T21:04:35;16.50;79.60
35305;DHT22;26433;48.034;-1.764;2023-05-14T21:09:40;16.40;80.10
35305;DHT22;26433;48.034;-1.764;2023-05-14T21:14:44;16.20;80.70
35305;DHT22;26433;48.034;-1.764;2023-05-14T21:19:49;16.10;80.80
35305;DHT22;26433;48.034;-1.764;2023-05-14T21:24:54;16.00;81.60
35305;DHT22;26433;48.034;-1.764;2023-05-14T21:29:57;15.80;82.00
35305;DHT22;26433;48.034;-1.764;2023-05-14T21:35:02;15.70;81.20
35305;DHT22;26433;48.034;-1.764;2023-05-14T21:40:07;15.60;81.80
35305;DHT22;26433;48.034;-1.764;2023-05-14T21:50:18;15.40;82.20
35305;DHT22;26433;48.034;-1.764;2023-05-14T21:55:22;15.40;83.00
35305;DHT22;26433;48.034;-1.764;2023-05-14T22:00:27;15.40;83.20
35305;DHT22;26433;48.034;-1.764;2023-05-14T22:05:32;15.30;83.50
35305;DHT22;26433;48.034;-1.764;2023-05-14T22:10:35;15.30;83.80
35305;DHT22;26433;48.034;-1.764;2023-05-14T22:15:39;15.20;84.10
35305;DHT22;26433;48.034;-1.764;2023-05-14T22:20:44;15.20;84.40
35305;DHT22;26433;48.034;-1.764;2023-05-14T22:25:48;15.10;84.70
